createdAt,value
2022-08-03T00:00:58.057Z,13.40
2022-08-03T00:01:58.088Z,13.37
2022-08-03T00:02:58.118Z,13.37
2022-08-03T00:03:58.030Z,13.37
2022-08-03T00:04:58.019Z,13.38
2022-08-03T00:06:04.369Z,13.38
2022-08-03T00:06:59.001Z,13.37
2022-08-03T00:07:58.001Z,13.37
2022-08-03T00:08:58.010Z,13.40
2022-08-03T00:09:57.970Z,13.41
2022-08-03T00:10:57.959Z,13.41
2022-08-03T00:11:57.961Z,13.44
2022-08-03T00:12:57.930Z,13.44
2022-08-03T00:13:57.937Z,13.43
2022-08-03T00:14:57.968Z,13.41
2022-08-03T00:15:57.901Z,13.41
2022-08-03T00:16:57.906Z,13.41
2022-08-03T00:17:57.883Z,13.40
2022-08-03T00:18:57.887Z,13.41
2022-08-03T00:19:57.863Z,13.40
2022-08-03T00:20:57.884Z,13.41
2022-08-03T00:21:57.847Z,13.41
2022-08-03T00:22:57.845Z,13.44
2022-08-03T00:23:59.588Z,13.44
2022-08-03T00:24:57.815Z,13.49
2022-08-03T00:25:57.803Z,13.49
2022-08-03T00:26:57.831Z,13.52
2022-08-03T00:27:57.813Z,13.47
2022-08-03T00:28:57.785Z,13.46
2022-08-03T00:30:00.128Z,13.47
2022-08-03T00:30:57.745Z,13.47
2022-08-03T00:31:59.492Z,13.46
2022-08-03T00:32:57.766Z,13.43
2022-08-03T00:33:59.442Z,13.44
2022-08-03T00:34:59.260Z,13.41
2022-08-03T00:35:57.705Z,13.43
2022-08-03T00:36:57.689Z,13.41
2022-08-03T00:37:57.680Z,13.43
2022-08-03T00:38:57.709Z,13.41
2022-08-03T00:39:57.657Z,13.41
2022-08-03T00:40:57.659Z,13.41
2022-08-03T00:41:57.629Z,13.41
2022-08-03T00:42:57.633Z,13.41
2022-08-03T00:43:57.610Z,13.43
2022-08-03T00:44:57.665Z,13.44
2022-08-03T00:45:57.597Z,13.46
2022-08-03T00:46:57.589Z,13.46
2022-08-03T00:47:57.573Z,13.49
2022-08-03T00:48:57.610Z,13.49
2022-08-03T00:49:57.544Z,13.51
2022-08-03T00:50:57.582Z,13.51
2022-08-03T00:51:57.523Z,13.52
2022-08-03T00:52:57.542Z,13.52
2022-08-03T00:53:57.518Z,13.54
2022-08-03T00:54:57.501Z,13.52
2022-08-03T00:55:57.482Z,13.54
2022-08-03T00:57:00.123Z,13.56
2022-08-03T00:57:57.474Z,13.59
2022-08-03T00:58:58.200Z,13.62
2022-08-03T00:59:57.445Z,13.61
2022-08-03T01:00:57.466Z,13.61
2022-08-03T01:01:57.425Z,13.61
2022-08-03T01:02:57.455Z,13.61
2022-08-03T01:03:57.396Z,13.62
2022-08-03T01:04:57.396Z,13.62
2022-08-03T01:05:57.380Z,13.62
2022-08-03T01:06:57.378Z,13.63
2022-08-03T01:07:57.367Z,13.65
2022-08-03T01:08:57.390Z,13.65
2022-08-03T01:09:57.339Z,13.67
2022-08-03T01:10:57.348Z,13.67
2022-08-03T01:12:01.039Z,13.69
2022-08-03T01:12:57.308Z,13.69
2022-08-03T01:14:01.583Z,13.65
2022-08-03T01:14:58.339Z,13.65
2022-08-03T01:15:57.280Z,13.69
2022-08-03T01:16:57.279Z,13.69
2022-08-03T01:17:57.256Z,13.69
2022-08-03T01:18:57.251Z,13.70
2022-08-03T01:19:57.241Z,13.69
2022-08-03T01:20:57.281Z,13.69
2022-08-03T01:21:57.222Z,13.70
2022-08-03T01:22:57.211Z,13.70
2022-08-03T01:23:57.202Z,13.70
2022-08-03T01:24:57.192Z,13.71
2022-08-03T01:25:57.178Z,13.71
2022-08-03T01:26:57.233Z,13.71
2022-08-03T01:27:57.154Z,13.74
2022-08-03T01:28:57.173Z,13.73
2022-08-03T01:29:57.167Z,13.74
2022-08-03T01:30:57.125Z,13.74
2022-08-03T01:32:58.121Z,13.73
2022-08-03T01:33:01.699Z,13.71
2022-08-03T01:33:57.096Z,13.74
2022-08-03T01:34:57.094Z,13.71
2022-08-03T01:35:57.076Z,13.73
2022-08-03T01:36:57.066Z,13.73
2022-08-03T01:37:57.056Z,13.79
2022-08-03T01:38:57.077Z,13.77
2022-08-03T01:39:57.027Z,13.79
2022-08-03T01:40:57.027Z,13.81
2022-08-03T01:41:57.008Z,13.83
2022-08-03T01:42:56.998Z,13.84
2022-08-03T01:44:29.069Z,13.87
2022-08-03T01:44:58.044Z,13.87
2022-08-03T01:45:56.978Z,13.87
2022-08-03T01:46:56.970Z,13.88
2022-08-03T01:47:56.959Z,13.87
2022-08-03T01:48:56.967Z,13.89
2022-08-03T01:49:56.928Z,13.89
2022-08-03T01:50:56.962Z,13.89
2022-08-03T01:52:03.317Z,13.88
2022-08-03T01:52:57.891Z,13.88
2022-08-03T01:53:56.890Z,13.88
2022-08-03T01:54:56.877Z,13.88
2022-08-03T01:55:56.867Z,13.91
2022-08-03T01:56:56.902Z,13.89
2022-08-03T01:58:05.201Z,13.91
2022-08-03T01:58:57.832Z,13.91
2022-08-03T01:59:56.822Z,13.91
2022-08-03T02:00:56.862Z,13.92
2022-08-03T02:02:15.952Z,13.91
2022-08-03T02:02:57.827Z,13.94
2022-08-03T02:04:00.485Z,13.94
2022-08-03T02:04:57.526Z,13.98
2022-08-03T02:06:18.133Z,13.98
2022-08-03T02:07:01.711Z,13.99
2022-08-03T02:07:57.578Z,13.99
2022-08-03T02:08:57.696Z,13.99
2022-08-03T02:09:57.184Z,14.02
2022-08-03T02:10:57.447Z,14.04
2022-08-03T02:11:57.564Z,14.04
2022-08-03T02:12:57.497Z,14.04
2022-08-03T02:13:57.995Z,14.06
2022-08-03T02:14:57.682Z,14.07
2022-08-03T02:15:57.455Z,14.07
2022-08-03T02:16:57.396Z,14.09
2022-08-03T02:17:57.304Z,14.12
2022-08-03T02:18:56.628Z,14.10
2022-08-03T02:19:56.619Z,14.12
2022-08-03T02:20:56.649Z,14.13
2022-08-03T02:22:01.362Z,14.13
2022-08-03T02:22:57.601Z,14.12
2022-08-03T02:23:56.583Z,14.12
2022-08-03T02:24:56.571Z,14.14
2022-08-03T02:25:56.561Z,14.14
2022-08-03T02:26:56.587Z,14.16
2022-08-03T02:27:56.543Z,14.17
2022-08-03T02:28:56.545Z,14.17
2022-08-03T02:29:56.513Z,14.19
2022-08-03T02:30:56.511Z,14.20
2022-08-03T02:31:56.497Z,14.20
2022-08-03T02:32:56.531Z,14.19
2022-08-03T02:33:56.474Z,14.20
2022-08-03T02:34:56.473Z,14.20
2022-08-03T02:35:56.469Z,14.20
2022-08-03T02:36:56.443Z,14.21
2022-08-03T02:37:56.435Z,14.21
2022-08-03T02:38:56.474Z,14.24
2022-08-03T02:39:56.415Z,14.24
2022-08-03T02:40:56.404Z,14.25
2022-08-03T02:41:56.405Z,14.27
2022-08-03T02:42:56.395Z,14.27
2022-08-03T02:44:06.424Z,14.27
2022-08-03T02:44:57.396Z,14.28
2022-08-03T02:45:56.351Z,14.28
2022-08-03T02:46:59.138Z,14.28
2022-08-03T02:47:56.337Z,14.29
2022-08-03T02:48:56.357Z,14.29
2022-08-03T02:49:56.388Z,14.32
2022-08-03T02:50:56.335Z,14.32
2022-08-03T02:51:56.299Z,14.32
2022-08-03T02:52:56.278Z,14.32
2022-08-03T02:53:56.269Z,14.29
2022-08-03T02:54:56.269Z,14.31
2022-08-03T02:55:56.248Z,14.34
2022-08-03T02:56:56.289Z,14.34
2022-08-03T02:57:56.240Z,14.34
2022-08-03T02:58:56.220Z,14.35
2022-08-03T02:59:56.211Z,14.38
2022-08-03T03:00:56.278Z,14.39
2022-08-03T03:01:56.180Z,14.39
2022-08-03T03:02:56.221Z,14.42
2022-08-03T03:03:56.174Z,14.42
2022-08-03T03:05:50.744Z,14.42
2022-08-03T03:05:57.858Z,14.42
2022-08-03T03:06:56.082Z,14.42
2022-08-03T03:07:56.072Z,14.43
2022-08-03T03:08:59.629Z,14.42
2022-08-03T03:09:56.064Z,14.47
2022-08-03T03:10:56.055Z,14.49
2022-08-03T03:11:56.036Z,14.49
2022-08-03T03:12:56.025Z,14.52
2022-08-03T03:13:56.025Z,14.52
2022-08-03T03:14:56.057Z,14.52
2022-08-03T03:15:55.993Z,14.52
2022-08-03T03:16:57.832Z,14.53
2022-08-03T03:17:55.975Z,14.52
2022-08-03T03:18:55.966Z,14.54
2022-08-03T03:19:55.947Z,14.56
2022-08-03T03:20:55.982Z,14.56
2022-08-03T03:21:55.937Z,14.57
2022-08-03T03:22:55.919Z,14.60
2022-08-03T03:23:55.908Z,14.61
2022-08-03T03:24:55.899Z,14.62
2022-08-03T03:25:55.890Z,14.64
2022-08-03T03:26:55.910Z,14.64
2022-08-03T03:27:55.870Z,14.65
2022-08-03T03:28:55.861Z,14.69
2022-08-03T03:29:55.849Z,14.72
2022-08-03T03:30:55.842Z,14.72
2022-08-03T03:31:55.830Z,14.74
2022-08-03T03:32:55.853Z,14.72
2022-08-03T03:33:55.800Z,14.74
2022-08-03T03:34:55.801Z,14.74
2022-08-03T03:35:55.781Z,14.74
2022-08-03T03:36:55.783Z,14.78
2022-08-03T03:37:55.767Z,14.80
2022-08-03T03:38:55.794Z,14.81
2022-08-03T03:39:55.742Z,14.84
2022-08-03T03:40:55.733Z,14.87
2022-08-03T03:41:55.732Z,14.84
2022-08-03T03:42:55.715Z,14.87
2022-08-03T03:43:55.704Z,14.88
2022-08-03T03:44:55.724Z,14.87
2022-08-03T03:45:55.685Z,14.87
2022-08-03T03:46:55.675Z,14.88
2022-08-03T03:47:55.665Z,14.88
2022-08-03T03:48:55.664Z,14.88
2022-08-03T03:49:55.643Z,14.91
2022-08-03T03:50:55.668Z,14.91
2022-08-03T03:51:55.626Z,14.93
2022-08-03T03:52:55.622Z,14.93
2022-08-03T03:53:55.605Z,14.98
2022-08-03T03:55:00.655Z,14.99
2022-08-03T03:55:59.041Z,14.98
2022-08-03T03:56:56.577Z,14.99
2022-08-03T03:57:55.560Z,14.98
2022-08-03T03:58:55.549Z,14.99
2022-08-03T03:59:55.899Z,15.01
2022-08-03T04:00:55.612Z,15.01
2022-08-03T04:01:58.918Z,15.02
2022-08-03T04:02:55.509Z,15.01
2022-08-03T04:03:56.246Z,15.02
2022-08-03T04:04:55.488Z,15.03
2022-08-03T04:05:55.474Z,15.05
2022-08-03T04:06:55.471Z,15.05
2022-08-03T04:07:55.490Z,15.05
2022-08-03T04:08:55.442Z,15.11
2022-08-03T04:09:55.439Z,15.11
2022-08-03T04:10:55.432Z,15.09
2022-08-03T04:11:55.413Z,15.06
2022-08-03T04:12:55.402Z,15.08
2022-08-03T04:13:55.463Z,15.09
2022-08-03T04:14:56.384Z,15.11
2022-08-03T04:15:55.378Z,15.12
2022-08-03T04:16:55.367Z,15.13
2022-08-03T04:17:55.345Z,15.13
2022-08-03T04:18:55.350Z,15.12
2022-08-03T04:19:55.368Z,15.11
2022-08-03T04:20:55.326Z,15.12
2022-08-03T04:21:57.062Z,15.13
2022-08-03T04:22:55.298Z,15.17
2022-08-03T04:23:55.287Z,15.17
2022-08-03T04:24:55.277Z,15.19
2022-08-03T04:25:55.297Z,15.21
2022-08-03T04:26:55.258Z,15.21
2022-08-03T04:28:30.089Z,15.23
2022-08-03T04:28:56.229Z,15.21
2022-08-03T04:29:55.226Z,15.20
2022-08-03T04:30:55.216Z,15.21
2022-08-03T04:31:55.240Z,15.26
2022-08-03T04:32:55.190Z,15.27
2022-08-03T04:33:55.181Z,15.30
2022-08-03T04:34:55.171Z,15.35
2022-08-03T04:36:01.360Z,15.38
2022-08-03T04:36:56.192Z,15.39
2022-08-03T04:37:55.139Z,15.41
2022-08-03T04:38:55.151Z,15.46
2022-08-03T04:39:57.669Z,15.51
2022-08-03T04:40:55.114Z,15.57
2022-08-03T04:42:04.297Z,15.61
2022-08-03T04:42:56.142Z,15.63
2022-08-03T04:43:55.082Z,15.67
2022-08-03T04:45:00.417Z,15.68
2022-08-03T04:45:56.061Z,15.68
2022-08-03T04:46:55.045Z,15.75
2022-08-03T04:47:55.036Z,15.76
2022-08-03T04:48:55.090Z,15.78
2022-08-03T04:49:55.006Z,15.79
2022-08-03T04:50:55.007Z,15.82
2022-08-03T04:51:54.986Z,15.85
2022-08-03T04:52:54.987Z,15.86
2022-08-03T04:53:54.967Z,15.89
2022-08-03T04:54:54.996Z,15.89
2022-08-03T04:55:54.951Z,15.92
2022-08-03T04:56:54.945Z,15.92
2022-08-03T04:57:54.927Z,15.93
2022-08-03T04:58:54.919Z,15.96
2022-08-03T05:00:01.314Z,15.96
2022-08-03T05:00:55.936Z,15.97
2022-08-03T05:01:54.917Z,15.99
2022-08-03T05:02:54.879Z,15.99
2022-08-03T05:03:54.872Z,16.01
2022-08-03T05:04:54.860Z,16.04
2022-08-03T05:05:54.849Z,16.06
2022-08-03T05:06:55.966Z,16.07
2022-08-03T05:07:54.828Z,16.09
2022-08-03T05:08:54.821Z,16.09
2022-08-03T05:10:01.828Z,16.11
2022-08-03T05:10:55.793Z,16.11
2022-08-03T05:11:54.804Z,16.14
2022-08-03T05:12:54.805Z,16.15
2022-08-03T05:13:54.773Z,16.16
2022-08-03T05:14:54.754Z,16.18
2022-08-03T05:15:54.745Z,16.18
2022-08-03T05:16:54.732Z,16.18
2022-08-03T05:17:54.734Z,16.16
2022-08-03T05:18:54.747Z,16.18
2022-08-03T05:19:54.705Z,16.18
2022-08-03T05:20:54.696Z,16.18
2022-08-03T05:21:54.686Z,16.20
2022-08-03T05:22:54.667Z,16.20
2022-08-03T05:23:54.659Z,16.23
2022-08-03T05:24:54.687Z,16.23
2022-08-03T05:25:54.648Z,16.25
2022-08-03T05:26:54.635Z,16.30
2022-08-03T05:27:54.618Z,16.27
2022-08-03T05:28:54.609Z,16.27
2022-08-03T05:29:54.599Z,16.31
2022-08-03T05:30:54.620Z,16.33
2022-08-03T05:31:54.571Z,16.31
2022-08-03T05:32:54.562Z,16.31
2022-08-03T05:33:54.562Z,16.37
2022-08-03T05:34:54.540Z,16.38
2022-08-03T05:36:02.728Z,16.38
2022-08-03T05:36:55.561Z,16.38
2022-08-03T05:37:55.037Z,16.38
2022-08-03T05:38:54.502Z,16.38
2022-08-03T05:39:54.500Z,16.40
2022-08-03T05:40:57.611Z,16.40
2022-08-03T05:41:55.483Z,16.40
2022-08-03T05:42:54.484Z,16.41
2022-08-03T05:43:54.488Z,16.41
2022-08-03T05:44:54.435Z,16.42
2022-08-03T05:46:11.487Z,16.45
2022-08-03T05:46:55.421Z,16.45
2022-08-03T05:47:54.417Z,16.45
2022-08-03T05:48:54.479Z,16.45
2022-08-03T05:49:54.397Z,16.48
2022-08-03T05:50:54.384Z,16.49
2022-08-03T05:52:08.913Z,16.50
2022-08-03T05:52:55.358Z,16.55
2022-08-03T05:53:54.348Z,16.56
2022-08-03T05:54:56.962Z,16.56
2022-08-03T05:55:58.037Z,16.55
2022-08-03T05:56:55.319Z,16.58
2022-08-03T05:57:55.180Z,16.58
2022-08-03T05:58:54.298Z,16.58
2022-08-03T05:59:55.761Z,16.59
2022-08-03T06:00:54.310Z,16.60
2022-08-03T06:01:54.321Z,16.62
2022-08-03T06:02:54.257Z,16.63
2022-08-03T06:03:54.264Z,16.63
2022-08-03T06:04:54.263Z,16.67
2022-08-03T06:06:00.410Z,16.67
2022-08-03T06:06:55.242Z,16.70
2022-08-03T06:07:54.204Z,16.68
2022-08-03T06:08:54.194Z,16.70
2022-08-03T06:10:37.208Z,16.68
2022-08-03T06:10:55.174Z,16.71
2022-08-03T06:11:54.165Z,16.70
2022-08-03T06:12:54.185Z,16.73
2022-08-03T06:13:54.164Z,16.70
2022-08-03T06:14:54.136Z,16.70
2022-08-03T06:15:54.148Z,16.70
2022-08-03T06:16:54.246Z,16.71
2022-08-03T06:17:56.667Z,16.71
2022-08-03T06:18:54.248Z,16.73
2022-08-03T06:19:54.079Z,16.73
2022-08-03T06:20:54.086Z,16.73
2022-08-03T06:21:54.059Z,16.74
2022-08-03T06:23:00.329Z,16.74
2022-08-03T06:23:55.755Z,16.75
2022-08-03T06:24:54.711Z,16.74
2022-08-03T06:25:54.034Z,16.75
2022-08-03T06:26:54.813Z,16.75
2022-08-03T06:27:54.000Z,16.78
2022-08-03T06:28:54.672Z,16.80
2022-08-03T06:29:54.017Z,16.83
2022-08-03T06:30:53.962Z,16.86
2022-08-03T06:31:53.971Z,16.85
2022-08-03T06:32:53.943Z,16.86
2022-08-03T06:34:34.262Z,16.86
2022-08-03T06:34:54.974Z,16.88
2022-08-03T06:35:53.934Z,16.88
2022-08-03T06:36:57.317Z,16.89
2022-08-03T06:37:54.895Z,16.90
2022-08-03T06:38:53.884Z,16.92
2022-08-03T06:39:53.875Z,16.92
2022-08-03T06:40:53.896Z,16.93
2022-08-03T06:41:53.866Z,16.95
2022-08-03T06:42:53.844Z,16.95
2022-08-03T06:44:02.690Z,16.96
2022-08-03T06:44:54.826Z,16.96
2022-08-03T06:45:53.819Z,16.93
2022-08-03T06:46:53.840Z,16.95
2022-08-03T06:47:53.828Z,16.95
2022-08-03T06:48:53.829Z,16.95
2022-08-03T06:50:12.747Z,16.92
2022-08-03T06:50:54.798Z,16.92
2022-08-03T06:52:04.327Z,16.92
2022-08-03T06:52:54.768Z,16.93
2022-08-03T06:53:53.740Z,16.93
2022-08-03T06:54:53.725Z,16.93
2022-08-03T06:55:54.944Z,16.93
2022-08-03T06:56:53.703Z,16.93
2022-08-03T06:57:53.691Z,16.95
2022-08-03T06:58:53.713Z,16.96
2022-08-03T07:00:08.708Z,16.93
2022-08-03T07:00:54.654Z,16.95
2022-08-03T07:01:53.717Z,16.98
2022-08-03T07:02:57.765Z,16.99
2022-08-03T07:03:53.633Z,17.03
2022-08-03T07:04:53.673Z,17.04
2022-08-03T07:05:53.604Z,17.07
2022-08-03T07:06:53.613Z,17.11
2022-08-03T07:07:53.585Z,17.14
2022-08-03T07:08:57.696Z,17.20
2022-08-03T07:09:56.576Z,17.29
2022-08-03T07:10:53.557Z,17.35
2022-08-03T07:11:53.546Z,17.44
2022-08-03T07:12:56.523Z,17.48
2022-08-03T07:13:53.528Z,17.51
2022-08-03T07:14:56.702Z,17.59
2022-08-03T07:15:56.126Z,17.64
2022-08-03T07:16:53.514Z,17.67
2022-08-03T07:17:53.484Z,17.66
2022-08-03T07:18:53.476Z,17.64
2022-08-03T07:19:53.461Z,17.64
2022-08-03T07:20:53.470Z,17.63
2022-08-03T07:21:53.689Z,17.62
2022-08-03T07:22:53.429Z,17.59
2022-08-03T07:23:53.420Z,17.63
2022-08-03T07:24:53.409Z,17.64
2022-08-03T07:25:53.411Z,17.66
2022-08-03T07:26:53.391Z,17.62
2022-08-03T07:27:53.426Z,17.63
2022-08-03T07:28:53.376Z,17.62
2022-08-03T07:29:53.362Z,17.66
2022-08-03T07:30:53.343Z,17.69
2022-08-03T07:31:53.334Z,17.73
2022-08-03T07:32:53.329Z,17.73
2022-08-03T07:33:53.354Z,17.76
2022-08-03T07:34:57.093Z,17.78
2022-08-03T07:35:54.294Z,17.79
2022-08-03T07:36:53.286Z,17.78
2022-08-03T07:37:54.508Z,17.81
2022-08-03T07:38:53.264Z,17.82
2022-08-03T07:39:53.296Z,17.84
2022-08-03T07:40:53.246Z,17.81
2022-08-03T07:41:53.236Z,17.78
2022-08-03T07:42:53.443Z,17.76
2022-08-03T07:43:53.216Z,17.74
2022-08-03T07:44:53.197Z,17.74
2022-08-03T07:45:53.230Z,17.73
2022-08-03T07:46:53.181Z,17.74
2022-08-03T07:47:53.803Z,17.78
2022-08-03T07:48:53.225Z,17.79
2022-08-03T07:49:53.150Z,17.82
2022-08-03T07:50:53.141Z,17.82
2022-08-03T07:51:53.160Z,17.84
2022-08-03T07:52:53.150Z,17.85
2022-08-03T07:53:53.121Z,17.87
2022-08-03T07:54:53.096Z,17.88
2022-08-03T07:55:53.095Z,17.87
2022-08-03T07:56:53.082Z,17.88
2022-08-03T07:57:53.112Z,17.88
2022-08-03T07:58:53.065Z,17.87
2022-08-03T08:00:01.588Z,17.88
2022-08-03T08:00:54.098Z,17.89
2022-08-03T08:01:53.034Z,17.89
2022-08-03T08:02:53.047Z,17.91
2022-08-03T08:03:53.745Z,17.91
2022-08-03T08:04:53.004Z,17.89
2022-08-03T08:05:53.074Z,17.87
2022-08-03T08:06:53.058Z,17.88
2022-08-03T08:07:52.966Z,17.94
2022-08-03T08:08:52.957Z,17.97
2022-08-03T08:09:52.987Z,18.02
2022-08-03T08:10:58.357Z,18.06
2022-08-03T08:11:53.927Z,18.04
2022-08-03T08:12:52.926Z,18.00
2022-08-03T08:13:52.919Z,18.00
2022-08-03T08:14:52.912Z,17.99
2022-08-03T08:15:52.927Z,17.91
2022-08-03T08:16:52.877Z,17.87
2022-08-03T08:17:52.879Z,17.85
2022-08-03T08:18:53.090Z,17.84
2022-08-03T08:19:53.318Z,17.81
2022-08-03T08:20:52.833Z,17.73
2022-08-03T08:22:02.251Z,17.71
2022-08-03T08:22:53.812Z,17.70
2022-08-03T08:23:56.231Z,17.67
2022-08-03T08:24:52.795Z,17.66
2022-08-03T08:25:52.803Z,17.57
2022-08-03T08:26:52.773Z,17.57
2022-08-03T08:28:30.710Z,17.57
2022-08-03T08:28:53.744Z,17.55
2022-08-03T08:29:55.155Z,17.55
2022-08-03T08:30:52.737Z,17.55
2022-08-03T08:31:52.744Z,17.57
2022-08-03T08:32:52.715Z,17.59
2022-08-03T08:34:07.955Z,17.55
2022-08-03T08:34:53.686Z,17.59
2022-08-03T08:35:52.681Z,17.62
2022-08-03T08:36:52.677Z,17.64
2022-08-03T08:37:52.666Z,17.67
2022-08-03T08:38:52.647Z,17.67
2022-08-03T08:39:52.678Z,17.69
2022-08-03T08:40:52.683Z,17.69
2022-08-03T08:41:53.380Z,17.69
2022-08-03T08:42:58.378Z,17.70
2022-08-03T08:43:58.141Z,17.70
2022-08-03T08:44:53.631Z,17.71
2022-08-03T08:45:52.592Z,17.71
2022-08-03T08:46:52.565Z,17.71
2022-08-03T08:47:55.669Z,17.73
2022-08-03T08:48:53.646Z,17.71
2022-08-03T08:50:08.923Z,17.71
2022-08-03T08:50:53.577Z,17.73
2022-08-03T08:52:00.620Z,17.71
2022-08-03T08:52:53.509Z,17.66
2022-08-03T08:53:52.510Z,17.59
2022-08-03T08:54:52.513Z,17.54
2022-08-03T08:55:57.888Z,17.53
2022-08-03T08:56:54.133Z,17.51
2022-08-03T08:57:52.492Z,17.48
2022-08-03T08:58:52.472Z,17.47
2022-08-03T08:59:55.725Z,17.47
2022-08-03T09:00:52.479Z,17.48
2022-08-03T09:01:52.428Z,17.47
2022-08-03T09:02:52.458Z,17.47
2022-08-03T09:03:52.397Z,17.47
2022-08-03T09:04:52.396Z,17.44
2022-08-03T09:05:56.400Z,17.43
2022-08-03T09:07:17.707Z,17.43
2022-08-03T09:07:53.387Z,17.46
2022-08-03T09:08:52.348Z,17.47
2022-08-03T09:10:11.821Z,17.51
2022-08-03T09:10:53.318Z,17.55
2022-08-03T09:12:01.203Z,17.62
2022-08-03T09:12:53.299Z,17.64
2022-08-03T09:13:52.318Z,17.70
2022-08-03T09:15:07.820Z,17.74
2022-08-03T09:16:01.232Z,17.78
2022-08-03T09:16:53.263Z,17.81
2022-08-03T09:17:52.261Z,17.81
2022-08-03T09:18:52.241Z,17.82
2022-08-03T09:20:03.771Z,17.85
2022-08-03T09:20:53.228Z,17.89
2022-08-03T09:21:52.219Z,17.91
2022-08-03T09:22:52.215Z,17.91
2022-08-03T09:24:02.272Z,17.94
2022-08-03T09:25:14.749Z,17.95
2022-08-03T09:25:53.173Z,17.97
2022-08-03T09:26:53.749Z,18.00
2022-08-03T09:27:52.154Z,18.06
2022-08-03T09:29:01.558Z,18.10
2022-08-03T09:29:53.132Z,18.15
2022-08-03T09:30:52.185Z,18.18
2022-08-03T09:31:52.114Z,18.24
2022-08-03T09:32:52.099Z,18.34
2022-08-03T09:33:52.087Z,18.50
2022-08-03T09:34:55.318Z,18.62
2022-08-03T09:35:54.541Z,18.65
2022-08-03T09:36:52.068Z,18.64
2022-08-03T09:38:12.591Z,18.65
2022-08-03T09:38:53.048Z,18.62
2022-08-03T09:39:52.049Z,18.62
2022-08-03T09:40:54.830Z,18.61
2022-08-03T09:41:53.060Z,18.54
2022-08-03T09:42:51.997Z,18.49
2022-08-03T09:43:51.990Z,18.47
2022-08-03T09:44:51.981Z,18.44
2022-08-03T09:45:51.990Z,18.49
2022-08-03T09:46:52.011Z,18.46
2022-08-03T09:47:51.974Z,18.43
2022-08-03T09:48:51.931Z,18.43
2022-08-03T09:49:51.922Z,18.44
2022-08-03T09:50:58.774Z,18.46
2022-08-03T09:52:32.932Z,18.43
2022-08-03T09:52:53.064Z,18.40
2022-08-03T09:53:59.191Z,18.34
2022-08-03T09:54:52.885Z,18.36
2022-08-03T09:56:33.318Z,18.33
2022-08-03T09:56:52.847Z,18.34
2022-08-03T09:57:51.832Z,18.33
2022-08-03T09:58:51.917Z,18.28
2022-08-03T09:59:55.979Z,18.28
2022-08-03T10:00:52.836Z,18.27
2022-08-03T10:01:51.799Z,18.27
2022-08-03T10:02:51.786Z,18.24
2022-08-03T10:04:04.087Z,18.22
2022-08-03T10:04:52.828Z,18.21
2022-08-03T10:05:54.812Z,18.18
2022-08-03T10:06:52.739Z,18.22
2022-08-03T10:07:51.729Z,18.17
2022-08-03T10:08:51.719Z,18.13
2022-08-03T10:09:52.658Z,18.10
2022-08-03T10:10:51.732Z,18.03
2022-08-03T10:11:51.687Z,18.00
2022-08-03T10:12:51.682Z,17.95
2022-08-03T10:13:51.691Z,17.95
2022-08-03T10:14:52.681Z,17.97
2022-08-03T10:16:21.915Z,17.99
2022-08-03T10:16:52.673Z,17.95
2022-08-03T10:17:51.622Z,17.92
2022-08-03T10:18:51.623Z,17.89
2022-08-03T10:19:51.652Z,17.89
2022-08-03T10:20:51.597Z,17.88
2022-08-03T10:21:51.587Z,17.88
2022-08-03T10:22:51.610Z,17.89
2022-08-03T10:23:51.566Z,17.91
2022-08-03T10:24:52.345Z,17.91
2022-08-03T10:25:51.536Z,17.91
2022-08-03T10:26:51.555Z,17.91
2022-08-03T10:27:51.527Z,17.89
2022-08-03T10:28:51.546Z,17.88
2022-08-03T10:29:51.512Z,17.88
2022-08-03T10:30:51.530Z,17.88
2022-08-03T10:31:57.635Z,17.84
2022-08-03T10:32:52.478Z,17.81
2022-08-03T10:33:53.109Z,17.84
2022-08-03T10:34:51.489Z,17.84
2022-08-03T10:35:52.439Z,17.82
2022-08-03T10:36:51.431Z,17.81
2022-08-03T10:37:57.162Z,17.81
2022-08-03T10:38:52.503Z,17.78
2022-08-03T10:39:51.394Z,17.81
2022-08-03T10:40:55.787Z,17.82
2022-08-03T10:41:52.381Z,17.85
2022-08-03T10:42:51.372Z,17.87
2022-08-03T10:43:51.363Z,17.89
2022-08-03T10:44:51.352Z,17.92
2022-08-03T10:45:51.354Z,17.95
2022-08-03T10:46:51.373Z,17.97
2022-08-03T10:47:51.325Z,17.97
2022-08-03T10:48:51.307Z,18.00
2022-08-03T10:49:51.383Z,18.04
2022-08-03T10:50:51.285Z,18.03
2022-08-03T10:51:54.289Z,18.04
2022-08-03T10:52:51.297Z,18.06
2022-08-03T10:53:54.761Z,18.06
2022-08-03T10:54:51.254Z,18.04
2022-08-03T10:55:51.238Z,18.06
2022-08-03T10:56:51.243Z,18.07
2022-08-03T10:57:52.566Z,18.10
2022-08-03T10:58:57.006Z,18.09
2022-08-03T10:59:52.188Z,18.12
2022-08-03T11:00:51.245Z,18.13
2022-08-03T11:01:58.518Z,18.13
2022-08-03T11:02:52.160Z,18.13
2022-08-03T11:03:51.150Z,18.13
2022-08-03T11:04:51.199Z,18.17
2022-08-03T11:05:51.130Z,18.18
2022-08-03T11:06:51.121Z,18.19
2022-08-03T11:07:54.683Z,18.19
2022-08-03T11:08:51.103Z,18.21
2022-08-03T11:09:51.092Z,18.21
2022-08-03T11:10:51.132Z,18.24
2022-08-03T11:11:51.074Z,18.25
2022-08-03T11:12:51.073Z,18.28
2022-08-03T11:13:51.061Z,18.27
2022-08-03T11:14:51.047Z,18.27
2022-08-03T11:15:51.125Z,18.28
2022-08-03T11:16:51.057Z,18.28
2022-08-03T11:17:55.685Z,18.28
2022-08-03T11:18:51.995Z,18.28
2022-08-03T11:19:57.097Z,18.29
2022-08-03T11:20:52.097Z,18.29
2022-08-03T11:21:50.976Z,18.33
2022-08-03T11:22:51.003Z,18.31
2022-08-03T11:24:03.034Z,18.34
2022-08-03T11:24:51.984Z,18.34
2022-08-03T11:25:55.081Z,18.34
2022-08-03T11:26:50.909Z,18.33
2022-08-03T11:27:50.908Z,18.34
2022-08-03T11:28:50.939Z,18.34
2022-08-03T11:29:50.889Z,18.36
2022-08-03T11:30:50.876Z,18.39
2022-08-03T11:31:51.816Z,18.39
2022-08-03T11:32:50.850Z,18.37
2022-08-03T11:33:50.841Z,18.39
2022-08-03T11:34:50.880Z,18.44
2022-08-03T11:35:50.821Z,18.52
2022-08-03T11:36:50.811Z,18.55
2022-08-03T11:38:04.382Z,18.58
2022-08-03T11:38:51.792Z,18.58
2022-08-03T11:39:50.792Z,18.57
2022-08-03T11:40:50.833Z,18.59
2022-08-03T11:41:50.765Z,18.59
2022-08-03T11:42:50.752Z,18.58
2022-08-03T11:43:50.744Z,18.57
2022-08-03T11:44:50.735Z,18.55
2022-08-03T11:45:50.715Z,18.54
2022-08-03T11:46:50.747Z,18.55
2022-08-03T11:47:51.577Z,18.57
2022-08-03T11:48:50.687Z,18.52
2022-08-03T11:49:50.680Z,18.52
2022-08-03T11:50:50.669Z,18.50
2022-08-03T11:51:50.659Z,18.49
2022-08-03T11:52:50.715Z,18.50
2022-08-03T11:53:50.639Z,18.47
2022-08-03T11:54:50.627Z,18.47
2022-08-03T11:55:51.620Z,18.44
2022-08-03T11:56:50.606Z,18.43
2022-08-03T11:59:15.277Z,18.40
2022-08-03T11:59:18.813Z,18.42
2022-08-03T11:59:51.580Z,18.40
2022-08-03T12:00:50.569Z,18.39
2022-08-03T12:01:50.766Z,18.39
2022-08-03T12:02:50.582Z,18.39
2022-08-03T12:03:50.538Z,18.40
2022-08-03T12:04:50.565Z,18.39
2022-08-03T12:05:51.989Z,18.40
2022-08-03T12:06:51.183Z,18.39
2022-08-03T12:08:04.021Z,18.37
2022-08-03T12:08:51.474Z,18.39
2022-08-03T12:09:50.474Z,18.39
2022-08-03T12:10:50.495Z,18.39
2022-08-03T12:11:59.709Z,18.37
2022-08-03T12:12:51.444Z,18.37
2022-08-03T12:14:44.210Z,18.39
2022-08-03T12:14:52.407Z,18.37
2022-08-03T12:15:50.417Z,18.37
2022-08-03T12:16:50.436Z,18.37
2022-08-03T12:17:53.681Z,18.37
2022-08-03T12:18:51.377Z,18.36
2022-08-03T12:19:50.377Z,18.36
2022-08-03T12:20:50.359Z,18.37
2022-08-03T12:21:57.132Z,18.37
2022-08-03T12:22:51.367Z,18.39
2022-08-03T12:23:50.327Z,18.39
2022-08-03T12:24:50.329Z,18.40
2022-08-03T12:25:50.501Z,18.40
2022-08-03T12:26:58.474Z,18.40
2022-08-03T12:27:51.361Z,18.40
2022-08-03T12:28:50.322Z,18.42
2022-08-03T12:29:58.372Z,18.42
2022-08-03T12:30:51.255Z,18.43
2022-08-03T12:31:50.263Z,18.42
2022-08-03T12:32:50.235Z,18.43
2022-08-03T12:33:50.225Z,18.42
2022-08-03T12:34:50.255Z,18.42
2022-08-03T12:35:52.281Z,18.42
2022-08-03T12:36:50.187Z,18.44
2022-08-03T12:37:50.186Z,18.47
2022-08-03T12:38:50.165Z,18.49
2022-08-03T12:40:00.623Z,18.46
2022-08-03T12:40:51.175Z,18.46
2022-08-03T12:41:50.137Z,18.47
2022-08-03T12:42:50.126Z,18.46
2022-08-03T12:43:50.120Z,18.47
2022-08-03T12:44:50.118Z,18.49
2022-08-03T12:45:51.100Z,18.50
2022-08-03T12:46:50.128Z,18.54
2022-08-03T12:47:50.088Z,18.55
2022-08-03T12:48:50.103Z,18.57
2022-08-03T12:49:50.061Z,18.61
2022-08-03T12:50:53.565Z,18.62
2022-08-03T12:51:50.060Z,18.65
2022-08-03T12:52:50.060Z,18.68